Horseheads, NY

3:18 PM EDT on September 30, 2016 (GMT -0400)
Elmira-Corning Regional | | Change Station

Elev 951 ft 42.16 °N, 76.89 °W | Updated 8 minutes ago

Light Rain
Light Rain Mist
57 °F
Feels Like 57 °F
N
12
Wind Variable Wind from ENE

Today
High -- | Low -- °F
--% Chance of Precip.
Yesterday
High -- | Low -- °F
Precip. -- in
Pressure 30.27 in
Visibility 2.0 miles
Clouds Mostly Cloudy 900 ft
Overcast 1500 ft
Dew Point 53 °F
Humidity 87%
Rainfall 0.04 in
Snow Depth Not available.
7:04 AM 6:49 PM
Waning Crescent, 0% visible
SPECI KELM 301910Z AUTO 07010KT 2SM -RA BR BKN009 OVC015 14/12 A3027 RMK AO2 P0001 T01390117
Pressure 30.27 in
Visibility 2.0 miles
Clouds Mostly Cloudy 900 ft
Overcast 1500 ft
Dew Point 53 °F
Humidity 87%
Rainfall 0.04 in
Snow Depth Not available.
7:04 AM 6:49 PM
Waning Crescent, 0% visible
SPECI KELM 301910Z AUTO 07010KT 2SM -RA BR BKN009 OVC015 14/12 A3027 RMK AO2 P0001 T01390117

10-Day Weather Forecast

Almanac

Astronomy

Sep. 30, 2016 Rise Set
Actual Time
Civil Twilight
Nautical Twilight
Astronomical Twilight
Moon
Length of Visible Light
Length of Day
Tomorrow will be .
, % of the Moon is Illuminated

Today's Extremes

State Highs State Lows

Community

WunderPhotos

Upload Photos

1,942,758 photos uploaded!

WunderBlog® & News

Nearby

Air Quality

  Air Quality AQ Index Pollutant
Not available.

Snow Depth

Station Depth Elevation

Earthquake Activity

City Distance Mag. Time & Date
Minimum magnitude displayed is 2.5.

Coastal Water Temperatures

Place Temperature

Stations

Nearby Weather Stations

Station Location Temp. Windchill Dew Point Humidity Wind Precip. Elev Updated Type
                   

Watches & Warnings

There are currently no watches in effect.